Terminal Aerodrome Forecast
Issued by NWS Twin Cities, MN

Home | Current Version | Previous Version | Graphics & Text | Print | Product List | Glossary On
Versions: 1 2 3 4 5 6 7 8 9 10 11 12 13 14 15 16 17 18 19 20 21 22 23 24 25 26 27 28 29 30 31 32 33
000
FTUS43 KMPX 310520
TAFMSP
TAF
KMSP 310520Z 3106/0112 18007KT 6SM BR BKN150
     FM310700 18006KT 6SM BR OVC006
      TEMPO 3107/3110 SCT006
     FM311400 19010KT P6SM BKN010
     FM311500 19014G22KT P6SM SKC
     FM010100 18008KT P6SM SCT250=

USA.gov is the U.S. government's official web portal to all federal, state and local government web resources and services.